Time;durP1;ratioP1;P1;durP2;ratioP2;P2;SDS_P1;SDS_P2;PMS_P1;PMS_P2;Temp;Humidity;BMP_temperature;BMP_pressure;BME280_temperature;BME280_humidity;BME280_pressure;Samples;Min_cycle;Max_cycle;Signal;HPM_P1;HPM_P2
2021/05/19 00:02:08;;;;;;;13.50;10.77;;;15.80;99.90;;;;;;4974816;28;20125;-69
2021/05/19 00:04:34;;;;;;;13.27;10.63;;;15.80;99.90;;;;;;4974812;28;20037;-69
2021/05/19 00:07:00;;;;;;;11.27;9.98;;;15.70;99.90;;;;;;4974853;28;20098;-69
2021/05/19 00:09:26;;;;;;;13.32;11.23;;;15.70;99.90;;;;;;4974834;28;20023;-69
2021/05/19 00:11:51;;;;;;;13.60;11.43;;;15.70;99.90;;;;;;4974885;28;20367;-69
2021/05/19 00:14:19;;;;;;;13.80;10.80;;;15.60;99.90;;;;;;4974798;28;20031;-70
2021/05/19 00:16:46;;;;;;;13.43;10.80;;;15.60;99.90;;;;;;4974654;28;20065;-69
2021/05/19 00:19:12;;;;;;;14.75;11.18;;;15.50;99.90;;;;;;4974823;28;20439;-69
2021/05/19 00:21:38;;;;;;;10.95;9.60;;;15.50;99.90;;;;;;4974750;28;20101;-69
2021/05/19 00:24:05;;;;;;;13.38;10.40;;;15.40;99.90;;;;;;4974597;28;20065;-69
2021/05/19 00:26:31;;;;;;;10.98;9.52;;;15.40;99.90;;;;;;4974543;28;20027;-69
2021/05/19 00:28:59;;;;;;;11.75;9.98;;;15.40;99.90;;;;;;4974196;28;20051;-69
2021/05/19 00:31:29;;;;;;;15.27;10.30;;;15.30;99.90;;;;;;4974380;28;20059;-69
2021/05/19 00:33:55;;;;;;;11.00;9.85;;;15.30;99.90;;;;;;4974358;28;20023;-69
2021/05/19 00:36:21;;;;;;;15.98;10.57;;;15.20;99.90;;;;;;4974284;28;20030;-68
2021/05/19 00:38:46;;;;;;;20.00;10.40;;;15.10;99.90;;;;;;4974270;28;20386;-68
2021/05/19 00:41:12;;;;;;;12.02;9.75;;;15.10;99.90;;;;;;4974068;28;20029;-68
2021/05/19 00:43:39;;;;;;;10.88;9.45;;;15.10;99.90;;;;;;4974191;28;20023;-68
2021/05/19 00:46:06;;;;;;;13.20;9.23;;;15.00;99.90;;;;;;4974186;28;20072;-68
2021/05/19 00:48:32;;;;;;;12.90;8.93;;;15.00;99.90;;;;;;4974092;28;20102;-68
2021/05/19 00:50:58;;;;;;;14.02;9.75;;;14.90;99.90;;;;;;4973979;28;20529;-68
2021/05/19 00:53:24;;;;;;;10.40;8.50;;;14.90;99.90;;;;;;4974031;28;20074;-68
2021/05/19 00:55:50;;;;;;;13.55;9.48;;;14.80;99.90;;;;;;4973914;28;20441;-68
2021/05/19 00:58:15;;;;;;;9.90;8.73;;;14.80;99.90;;;;;;4973839;28;20027;-69
2021/05/19 01:00:41;;;;;;;12.13;8.70;;;14.70;99.90;;;;;;5005040;28;20031;-68
2021/05/19 01:03:07;;;;;;;11.25;9.50;;;14.70;99.90;;;;;;4973945;28;20027;-68
2021/05/19 01:05:48;;;;;;;13.90;9.52;;;14.70;99.90;;;;;;4973822;28;20059;-68
2021/05/19 01:11:06;;;;;;;11.88;8.95;;;14.50;99.90;;;;;;4973842;28;20485;-68
2021/05/19 01:13:33;;;;;;;12.18;7.95;;;14.50;99.90;;;;;;4973690;28;20030;-68
2021/05/19 01:16:00;;;;;;;14.82;8.50;;;14.50;99.90;;;;;;4973599;28;20568;-69
2021/05/19 01:18:26;;;;;;;11.35;8.45;;;14.50;99.90;;;;;;4973572;28;20031;-68
2021/05/19 01:20:55;;;;;;;10.93;9.13;;;14.40;99.90;;;;;;4973486;28;20027;-69
2021/05/19 01:23:21;;;;;;;16.65;9.80;;;14.40;99.90;;;;;;4973691;28;20696;-69
2021/05/19 01:25:47;;;;;;;15.95;10.52;;;14.40;99.90;;;;;;4973353;28;20084;-69
2021/05/19 01:28:13;;;;;;;17.20;12.02;;;14.30;99.90;;;;;;4973378;28;20093;-69
2021/05/19 01:30:39;;;;;;;17.98;12.32;;;14.30;99.90;;;;;;4973546;28;20378;-69
2021/05/19 01:33:04;;;;;;;22.38;14.65;;;14.30;99.90;;;;;;4973361;28;20027;-69
2021/05/19 01:35:30;;;;;;;19.27;14.60;;;14.30;99.90;;;;;;4973368;28;20475;-69
2021/05/19 01:37:56;;;;;;;21.67;13.63;;;14.30;99.90;;;;;;4973344;28;20540;-69
2021/05/19 01:40:23;;;;;;;14.07;12.35;;;14.30;99.90;;;;;;4973360;28;20037;-70
2021/05/19 01:42:50;;;;;;;18.02;13.98;;;14.30;99.90;;;;;;5004593;28;20503;-69
2021/05/19 01:45:21;;;;;;;15.23;12.35;;;14.30;99.90;;;;;;4973230;28;20243;-69
2021/05/19 01:47:49;;;;;;;17.08;13.60;;;14.30;99.90;;;;;;4973231;28;20033;-69
2021/05/19 01:50:27;;;;;;;16.77;13.65;;;14.30;99.90;;;;;;4973319;28;20070;-68
2021/05/19 01:52:55;;;;;;;16.58;14.57;;;14.30;99.90;;;;;;4973188;28;20390;-69
2021/05/19 01:55:23;;;;;;;18.05;15.10;;;14.30;99.90;;;;;;4973311;28;20030;-68
2021/05/19 01:57:49;;;;;;;22.30;16.05;;;14.30;99.90;;;;;;4973090;28;20038;-69
2021/05/19 02:00:17;;;;;;;21.38;16.08;;;14.30;99.90;;;;;;4972964;28;20023;-68
2021/05/19 02:02:43;;;;;;;20.80;16.08;;;14.30;99.90;;;;;;4973101;28;20513;-68
2021/05/19 02:05:14;;;;;;;23.38;16.48;;;14.30;99.90;;;;;;4973140;28;20031;-69
2021/05/19 02:07:40;;;;;;;22.35;16.67;;;14.30;99.90;;;;;;4975191;28;20054;-68
2021/05/19 02:10:10;;;;;;;23.98;16.40;;;14.40;99.90;;;;;;4977119;28;20035;-68
2021/05/19 02:12:36;;;;;;;23.02;17.10;;;14.40;99.90;;;;;;4977032;28;20513;-68
2021/05/19 02:15:03;;;;;;;18.55;15.32;;;14.40;99.90;;;;;;4976904;28;20449;-68
2021/05/19 02:17:29;;;;;;;20.02;17.08;;;14.50;99.90;;;;;;5008126;28;20054;-69
2021/05/19 02:19:55;;;;;;;23.80;18.00;;;14.60;99.90;;;;;;4976898;28;20061;-68
2021/05/19 02:22:22;;;;;;;24.00;18.48;;;14.60;99.90;;;;;;4976702;28;20026;-68
2021/05/19 02:24:48;;;;;;;26.35;18.90;;;14.60;99.90;;;;;;4976799;28;20109;-68
2021/05/19 02:27:14;;;;;;;23.52;18.02;;;14.60;99.90;;;;;;4976806;28;20046;-68
2021/05/19 02:29:40;;;;;;;30.27;17.83;;;14.60;99.90;;;;;;4976551;28;20051;-68
2021/05/19 02:32:07;;;;;;;20.92;16.77;;;14.70;99.90;;;;;;4976598;28;20023;-69
2021/05/19 02:34:32;;;;;;;24.58;18.10;;;14.70;99.90;;;;;;4976536;28;20102;-68
2021/05/19 02:36:58;;;;;;;24.52;18.08;;;14.70;99.90;;;;;;4976878;28;20088;-72
2021/05/19 02:39:24;;;;;;;24.10;17.48;;;14.70;99.90;;;;;;4976532;28;20041;-73
2021/05/19 02:41:50;;;;;;;24.13;17.42;;;14.80;99.90;;;;;;4976509;28;20109;-72
2021/05/19 02:44:16;;;;;;;24.77;16.73;;;14.80;99.90;;;;;;4976449;28;20035;-74
2021/05/19 02:46:41;;;;;;;23.20;16.83;;;14.80;99.90;;;;;;4976652;28;20078;-73
2021/05/19 02:49:07;;;;;;;26.63;18.35;;;14.90;99.90;;;;;;4976629;28;20807;-74
2021/05/19 02:51:35;;;;;;;23.83;17.55;;;14.90;99.90;;;;;;4976396;28;20034;-73
2021/05/19 02:54:03;;;;;;;25.77;17.92;;;15.00;99.90;;;;;;4976468;28;20027;-72
2021/05/19 02:56:29;;;;;;;18.08;16.00;;;15.00;99.90;;;;;;4976357;28;20027;-74
2021/05/19 02:58:54;;;;;;;24.05;17.00;;;15.10;99.90;;;;;;4976455;28;20816;-73
2021/05/19 03:01:20;;;;;;;21.42;17.60;;;15.10;99.90;;;;;;4976155;28;20023;-73
2021/05/19 03:03:46;;;;;;;22.30;15.55;;;15.20;99.90;;;;;;4976188;28;20086;-73
2021/05/19 03:06:12;;;;;;;18.65;13.75;;;15.60;99.90;;;;;;4976091;28;20097;-68
2021/05/19 03:08:38;;;;;;;16.75;12.90;;;16.30;99.90;;;;;;4975913;28;20105;-69
2021/05/19 03:11:06;;;;;;;13.73;12.27;;;17.40;99.90;;;;;;4976028;28;20054;-69
2021/05/19 03:13:33;;;;;;;15.75;11.98;;;18.50;99.90;;;;;;4975528;28;20023;-68
2021/05/19 03:15:59;;;;;;;13.80;11.60;;;19.40;99.90;;;;;;4976204;28;20077;-72
2021/05/19 03:18:25;;;;;;;18.75;12.85;;;19.80;98.30;;;;;;4974408;28;20031;-72
2021/05/19 03:20:51;;;;;;;20.98;14.73;;;19.70;94.50;;;;;;4975593;28;20038;-74
2021/05/19 03:23:17;;;;;;;20.52;14.98;;;19.30;92.00;;;;;;4975834;28;20121;-74
2021/05/19 03:25:43;;;;;;;21.17;17.00;;;18.80;91.00;;;;;;4975616;28;20102;-73
2021/05/19 03:28:09;;;;;;;20.45;18.10;;;18.40;90.80;;;;;;4975442;28;20142;-73
2021/05/19 03:30:35;;;;;;;28.38;20.42;;;17.90;91.20;;;;;;4975707;28;20109;-74
2021/05/19 03:33:01;;;;;;;41.53;25.48;;;17.60;91.60;;;;;;4975226;28;20029;-71
2021/05/19 03:35:27;;;;;;;50.67;28.63;;;17.40;92.20;;;;;;4975326;28;20023;-69
2021/05/19 03:37:52;;;;;;;61.55;29.10;;;17.30;92.70;;;;;;4975357;28;20034;-69
2021/05/19 03:40:19;;;;;;;57.50;28.00;;;17.30;93.10;;;;;;4975219;28;20494;-69
2021/05/19 03:42:45;;;;;;;54.88;28.25;;;17.30;93.20;;;;;;4975251;28;20493;-69
2021/05/19 03:45:14;;;;;;;55.42;28.35;;;17.30;92.90;;;;;;4975118;28;20030;-69
2021/05/19 03:47:40;;;;;;;47.92;22.55;;;17.20;92.20;;;;;;4975283;28;20023;-69
2021/05/19 03:50:08;;;;;;;50.50;25.58;;;17.10;92.00;;;;;;4975270;28;20029;-70
2021/05/19 03:52:34;;;;;;;47.22;22.20;;;17.20;93.20;;;;;;4975020;28;20047;-71
2021/05/19 03:55:00;;;;;;;49.50;24.00;;;17.60;94.50;;;;;;4974903;28;20027;-69
2021/05/19 03:57:26;;;;;;;41.28;23.40;;;18.20;95.30;;;;;;4974827;28;20102;-69
2021/05/19 03:59:52;;;;;;;46.70;23.17;;;19.30;96.40;;;;;;4974837;28;20110;-70
2021/05/19 04:02:18;;;;;;;34.53;17.23;;;20.50;93.70;;;;;;4974614;28;20137;-69
2021/05/19 04:04:44;;;;;;;36.35;19.50;;;21.10;89.50;;;;;;4974994;28;20039;-69
2021/05/19 04:07:10;;;;;;;35.53;16.20;;;21.20;84.50;;;;;;4974740;28;20027;-70
2021/05/19 04:09:36;;;;;;;32.47;17.80;;;21.20;83.70;;;;;;4974602;28;20102;-70
2021/05/19 04:12:03;;;;;;;26.02;13.60;;;21.50;82.90;;;;;;4974274;28;20102;-70
2021/05/19 04:14:29;;;;;;;25.55;12.07;;;22.00;82.70;;;;;;4974399;28;20029;-69
2021/05/19 04:16:55;;;;;;;27.58;12.75;;;22.40;79.40;;;;;;4974356;28;20031;-69
2021/05/19 04:19:20;;;;;;;25.23;15.45;;;22.30;77.40;;;;;;4974236;28;20034;-69
2021/05/19 04:21:46;;;;;;;27.58;16.55;;;22.10;76.80;;;;;;4972521;28;20069;-71
2021/05/19 04:24:12;;;;;;;25.35;13.13;;;22.40;78.20;;;;;;4973807;28;20027;-70
2021/05/19 04:26:37;;;;;;;18.10;11.05;;;23.20;77.50;;;;;;4973536;28;20136;-69
2021/05/19 04:29:03;;;;;;;19.02;12.00;;;24.10;76.60;;;;;;4973054;28;20407;-68
2021/05/19 04:31:30;;;;;;;23.17;14.18;;;24.60;71.10;;;;;;4973286;28;20073;-69
2021/05/19 04:33:56;;;;;;;29.85;22.40;;;23.90;68.60;;;;;;4973163;28;20075;-70
2021/05/19 04:36:22;;;;;;;29.30;17.48;;;23.20;68.00;;;;;;4973489;28;20027;-67
2021/05/19 04:38:48;;;;;;;24.52;15.18;;;22.40;68.70;;;;;;4973224;28;20022;-69
2021/05/19 04:41:13;;;;;;;25.27;15.07;;;21.70;70.00;;;;;;4973313;28;20366;-69
2021/05/19 04:43:39;;;;;;;57.53;25.80;;;21.40;72.00;;;;;;4972833;28;20470;-69
2021/05/19 04:46:05;;;;;;;62.63;27.95;;;21.20;72.60;;;;;;4973062;28;20034;-69
2021/05/19 04:48:31;;;;;;;30.98;15.90;;;20.80;72.60;;;;;;4973176;28;20393;-74
2021/05/19 04:50:57;;;;;;;17.27;12.18;;;20.40;73.30;;;;;;4972855;28;20081;-74
2021/05/19 04:53:23;;;;;;;19.73;11.85;;;19.90;74.00;;;;;;4972976;28;20101;-75
2021/05/19 04:55:49;;;;;;;22.15;11.88;;;19.50;74.90;;;;;;4973084;28;20033;-74
2021/05/19 04:58:14;;;;;;;16.90;9.15;;;19.10;75.90;;;;;;4972685;28;20362;-74
2021/05/19 05:00:40;;;;;;;10.93;8.10;;;18.90;76.90;;;;;;4972717;28;20026;-75
2021/05/19 05:03:08;;;;;;;19.67;9.57;;;18.60;77.10;;;;;;4972866;28;20031;-75
2021/05/19 05:05:34;;;;;;;13.48;9.00;;;18.40;78.10;;;;;;4972401;28;20038;-74
2021/05/19 05:07:59;;;;;;;13.15;8.95;;;18.20;78.10;;;;;;4972916;28;20027;-79
2021/05/19 05:10:25;;;;;;;12.52;9.13;;;18.00;78.70;;;;;;4973185;28;20023;-77
2021/05/19 05:12:51;;;;;;;12.52;9.57;;;17.70;79.00;;;;;;4972897;28;20130;-75
2021/05/19 05:15:18;;;;;;;18.42;14.60;;;17.50;79.90;;;;;;4972739;28;20030;-75
2021/05/19 05:17:44;;;;;;;16.77;10.25;;;17.40;80.70;;;;;;4972775;28;20035;-74
2021/05/19 05:20:11;;;;;;;17.38;9.75;;;17.30;81.50;;;;;;4972388;28;20046;-70
2021/05/19 05:22:38;;;;;;;13.18;8.68;;;17.20;82.50;;;;;;4971912;28;20033;-69
2021/05/19 05:25:07;;;;;;;10.70;7.38;;;17.20;82.70;;;;;;4972403;28;20038;-71
2021/05/19 05:27:33;;;;;;;13.65;7.65;;;17.10;82.90;;;;;;4971062;28;20049;-71
2021/05/19 05:29:59;;;;;;;12.25;7.43;;;17.10;83.80;;;;;;4972524;28;20053;-69
2021/05/19 05:32:24;;;;;;;10.48;7.10;;;17.30;84.60;;;;;;4972166;28;20073;-70
2021/05/19 05:34:50;;;;;;;13.63;7.10;;;17.50;84.60;;;;;;4972070;28;20359;-71
2021/05/19 05:37:18;;;;;;;14.60;7.47;;;17.60;84.50;;;;;;4971584;28;20375;-70
2021/05/19 05:39:43;;;;;;;13.07;7.00;;;17.80;84.60;;;;;;4972241;28;20105;-71
2021/05/19 05:42:10;;;;;;;11.57;7.53;;;18.00;83.50;;;;;;4971310;28;20110;-70
2021/05/19 05:44:35;;;;;;;15.27;8.23;;;18.10;83.30;;;;;;4972101;28;20019;-69
2021/05/19 05:47:01;;;;;;;14.63;7.03;;;18.10;82.20;;;;;;4972196;28;20031;-70
2021/05/19 05:49:27;;;;;;;12.32;7.03;;;18.10;82.00;;;;;;4972170;28;20027;-75
2021/05/19 05:51:53;;;;;;;13.38;7.22;;;18.10;82.50;;;;;;4972342;28;20030;-75
2021/05/19 05:54:18;;;;;;;14.35;8.95;;;18.30;82.50;;;;;;4972668;28;20466;-75
2021/05/19 05:56:44;;;;;;;21.33;9.63;;;18.50;83.10;;;;;;4972548;28;20077;-75
2021/05/19 05:59:10;;;;;;;37.13;10.90;;;18.70;82.40;;;;;;4972723;28;20026;-75
2021/05/19 06:01:36;;;;;;;16.70;8.38;;;18.80;81.00;;;;;;4972574;28;20485;-75
2021/05/19 06:04:02;;;;;;;24.23;8.77;;;18.80;79.90;;;;;;4972331;28;20031;-75
2021/05/19 06:06:28;;;;;;;28.80;10.85;;;18.80;79.90;;;;;;4972711;28;20023;-76
2021/05/19 06:08:54;;;;;;;18.90;8.77;;;18.80;80.20;;;;;;4972625;28;20027;-75
2021/05/19 06:11:19;;;;;;;25.67;9.90;;;18.90;79.90;;;;;;4972800;28;20037;-79
2021/05/19 06:13:45;;;;;;;20.05;9.40;;;19.00;79.30;;;;;;4972988;28;20073;-75
2021/05/19 06:16:11;;;;;;;20.77;9.90;;;18.90;78.80;;;;;;4972065;28;20042;-72
2021/05/19 06:18:37;;;;;;;16.95;9.93;;;18.90;78.80;;;;;;4972301;28;20476;-72
2021/05/19 06:21:03;;;;;;;24.38;10.48;;;18.90;78.60;;;;;;4972171;28;20377;-70
2021/05/19 06:23:29;;;;;;;23.77;10.18;;;19.10;79.30;;;;;;4972394;28;20026;-78
2021/05/19 06:25:55;;;;;;;33.10;12.15;;;19.50;79.50;;;;;;4972504;28;20169;-76
2021/05/19 06:28:20;;;;;;;38.33;18.83;;;19.80;78.60;;;;;;4972272;28;20125;-76
2021/05/19 06:30:46;;;;;;;36.20;19.05;;;20.00;76.90;;;;;;4971911;28;20461;-77
2021/05/19 06:33:12;;;;;;;28.35;14.07;;;20.40;77.20;;;;;;4971588;28;20019;-77
2021/05/19 06:35:38;;;;;;;24.85;12.23;;;20.70;76.00;;;;;;4971391;28;20027;-76
2021/05/19 06:38:04;;;;;;;28.23;14.82;;;21.10;74.30;;;;;;4972310;28;20109;-77
2021/05/19 06:40:30;;;;;;;29.40;13.40;;;21.40;73.80;;;;;;4971919;28;20122;-75
2021/05/19 06:42:57;;;;;;;26.17;12.25;;;21.80;73.20;;;;;;4971823;28;20097;-76
2021/05/19 06:45:22;;;;;;;22.13;12.85;;;22.20;71.90;;;;;;4972392;28;20077;-76
2021/05/19 06:47:48;;;;;;;23.75;12.80;;;22.40;70.60;;;;;;4971211;28;20027;-77
2021/05/19 06:50:14;;;;;;;27.35;12.80;;;22.70;69.60;;;;;;4970927;28;20132;-76
2021/05/19 06:52:39;;;;;;;29.52;14.25;;;22.80;68.70;;;;;;4971627;28;20042;-74
2021/05/19 06:55:07;;;;;;;35.13;15.35;;;22.80;67.90;;;;;;4975868;28;20493;-76
2021/05/19 06:57:35;;;;;;;24.83;14.75;;;22.80;67.80;;;;;;4975567;28;20042;-78
2021/05/19 07:00:03;;;;;;;21.70;12.60;;;23.00;67.50;;;;;;4975522;28;20158;-77
2021/05/19 07:02:28;;;;;;;24.08;13.95;;;23.20;67.10;;;;;;4976116;28;20027;-76
2021/05/19 07:04:54;;;;;;;17.05;10.48;;;23.60;66.20;;;;;;4975378;28;20082;-77
2021/05/19 07:07:20;;;;;;;23.38;11.32;;;23.70;65.60;;;;;;4975795;28;20033;-77
2021/05/19 07:09:45;;;;;;;26.15;14.50;;;24.00;65.00;;;;;;4975682;28;20031;-76
2021/05/19 07:12:11;;;;;;;21.38;11.00;;;23.90;63.30;;;;;;4975537;28;20037;-76
2021/05/19 07:14:45;;;;;;;27.50;13.80;;;23.60;63.70;;;;;;4975164;28;20492;-72
2021/05/19 07:17:11;;;;;;;24.85;11.85;;;23.60;63.90;;;;;;4975279;28;20046;-72
2021/05/19 07:19:37;;;;;;;24.25;12.43;;;23.50;64.00;;;;;;4974453;28;20062;-71
2021/05/19 07:22:02;;;;;;;21.98;10.85;;;23.40;63.80;;;;;;4974791;28;20030;-71
2021/05/19 07:24:28;;;;;;;16.20;8.35;;;23.40;63.50;;;;;;4974913;28;20027;-71
2021/05/19 07:26:54;;;;;;;15.65;9.05;;;23.20;63.20;;;;;;4975063;28;20454;-72
2021/05/19 07:29:20;;;;;;;12.68;7.97;;;23.10;63.70;;;;;;4974994;28;20074;-71
2021/05/19 07:31:46;;;;;;;9.82;5.95;;;23.10;64.10;;;;;;4974684;28;20030;-71
2021/05/19 07:34:12;;;;;;;11.50;7.15;;;23.00;63.80;;;;;;4975137;28;20378;-72
2021/05/19 07:36:38;;;;;;;16.13;7.20;;;22.90;63.80;;;;;;4974708;28;20081;-71
2021/05/19 07:39:07;;;;;;;17.88;7.25;;;22.90;63.80;;;;;;4974857;28;20069;-72
2021/05/19 07:41:33;;;;;;;17.10;8.50;;;22.90;63.50;;;;;;4974845;28;20078;-71
2021/05/19 07:43:58;;;;;;;15.90;8.00;;;22.90;63.60;;;;;;4974699;28;20023;-71
2021/05/19 07:46:24;;;;;;;18.23;6.47;;;22.70;63.40;;;;;;4974552;28;20501;-74
2021/05/19 07:48:50;;;;;;;11.13;5.63;;;22.60;63.50;;;;;;4974570;28;20097;-71
2021/05/19 07:51:16;;;;;;;14.82;6.47;;;22.50;63.40;;;;;;4974832;28;20102;-72
2021/05/19 07:53:42;;;;;;;12.65;6.18;;;22.50;63.50;;;;;;4974559;28;20465;-72
2021/05/19 07:58:45;;;;;;;10.95;6.93;;;22.80;64.20;;;;;;4974312;28;20034;-72
2021/05/19 08:03:54;;;;;;;16.50;8.70;;;23.70;62.30;;;;;;4974498;28;20505;-74
2021/05/19 08:06:21;;;;;;;19.45;8.57;;;23.90;61.60;;;;;;4973368;28;20039;-75
2021/05/19 08:08:47;;;;;;;20.83;10.18;;;23.90;60.90;;;;;;4974455;28;20034;-73
2021/05/19 08:11:15;;;;;;;20.98;11.05;;;23.90;60.50;;;;;;4974805;28;20081;-72
2021/05/19 08:13:42;;;;;;;31.13;16.48;;;23.80;60.30;;;;;;4974271;28;20424;-73
2021/05/19 08:16:11;;;;;;;24.55;11.88;;;23.80;60.70;;;;;;4973350;28;20027;-71
2021/05/19 08:18:37;;;;;;;23.23;13.02;;;24.10;60.90;;;;;;4973439;28;20026;-72
2021/05/19 08:21:03;;;;;;;22.40;11.60;;;24.70;59.80;;;;;;4972269;28;20045;-74
2021/05/19 08:23:29;;;;;;;28.50;12.60;;;24.80;58.80;;;;;;4973285;28;20029;-73
2021/05/19 08:25:56;;;;;;;14.18;8.60;;;24.80;58.00;;;;;;4973475;28;20034;-73
2021/05/19 08:28:22;;;;;;;9.27;4.90;;;24.60;57.90;;;;;;4973486;28;20417;-74
2021/05/19 08:30:48;;;;;;;13.65;5.40;;;24.40;58.00;;;;;;4973589;28;20023;-74
2021/05/19 08:33:14;;;;;;;7.25;5.03;;;23.80;58.50;;;;;;4973560;28;20030;-72
2021/05/19 08:35:40;;;;;;;7.28;5.18;;;23.30;59.00;;;;;;4971808;28;20034;-74
2021/05/19 08:38:06;;;;;;;9.65;4.72;;;22.60;59.90;;;;;;4973124;28;20034;-72
2021/05/19 08:40:32;;;;;;;12.00;6.30;;;22.20;61.60;;;;;;4973348;28;20085;-73
2021/05/19 08:42:58;;;;;;;6.35;4.53;;;22.00;62.60;;;;;;4973467;28;20860;-72
2021/05/19 08:45:24;;;;;;;9.48;4.97;;;22.00;63.40;;;;;;4972903;28;20059;-73
2021/05/19 08:48:08;;;;;;;5.05;4.35;;;22.00;63.80;;;;;;4972825;28;20058;-73
2021/05/19 08:50:37;;;;;;;8.45;3.70;;;22.00;64.00;;;;;;4971102;28;20030;-79
2021/05/19 08:53:07;;;;;;;12.30;4.32;;;21.70;63.90;;;;;;4972979;28;20044;-79
2021/05/19 08:55:33;;;;;;;7.78;4.05;;;21.40;64.40;;;;;;4972109;28;20027;-80
2021/05/19 08:57:58;;;;;;;6.80;3.95;;;21.10;65.00;;;;;;4973140;28;20038;-78
2021/05/19 09:00:24;;;;;;;5.43;3.72;;;20.90;65.40;;;;;;4972643;28;20031;-78
2021/05/19 09:03:09;;;;;;;5.85;3.90;;;20.70;65.90;;;;;;4973018;28;20057;-79
2021/05/19 09:05:36;;;;;;;6.07;4.25;;;20.30;66.00;;;;;;4972629;28;20027;-79
2021/05/19 09:08:07;;;;;;;5.45;3.85;;;20.00;67.10;;;;;;4973519;28;20050;-79
2021/05/19 09:10:33;;;;;;;8.95;4.68;;;19.80;68.20;;;;;;4973692;28;20027;-83
2021/05/19 09:12:59;;;;;;;8.35;3.35;;;19.60;68.50;;;;;;4973352;28;20034;-79
2021/05/19 09:15:25;;;;;;;6.40;4.53;;;19.40;69.30;;;;;;4972989;28;20139;-79
2021/05/19 09:18:00;;;;;;;10.27;5.80;;;19.10;70.80;;;;;;4972976;28;20473;-80
2021/05/19 09:20:26;;;;;;;12.18;6.05;;;19.00;72.40;;;;;;4972979;28;20532;-79
2021/05/19 09:23:03;;;;;;;17.27;7.75;;;18.90;73.80;;;;;;4973054;28;20069;-76
2021/05/19 09:25:30;;;;;;;19.48;8.45;;;18.90;74.20;;;;;;4973564;28;20027;-78
2021/05/19 09:28:03;;;;;;;18.38;7.70;;;18.90;74.90;;;;;;4976148;28;20050;-79
2021/05/19 09:30:45;;;;;;;17.35;8.57;;;18.90;75.40;;;;;;4973818;28;20022;-74
2021/05/19 09:33:18;;;;;;;15.52;6.53;;;18.90;75.50;;;;;;4973047;28;20219;-73
2021/05/19 09:35:45;;;;;;;11.88;6.03;;;18.80;74.90;;;;;;4972921;28;20077;-71
2021/05/19 09:38:28;;;;;;;11.70;4.82;;;18.70;75.00;;;;;;4972145;28;20327;-72
2021/05/19 09:41:24;;;;;;;13.18;5.25;;;18.60;74.70;;;;;;4970372;28;20023;-72
2021/05/19 09:43:55;;;;;;;14.75;5.85;;;18.40;75.20;;;;;;4972346;28;20106;-73
2021/05/19 09:46:34;;;;;;;16.08;6.30;;;18.20;75.90;;;;;;4971716;28;20019;-72
2021/05/19 09:49:21;;;;;;;15.23;5.70;;;18.00;77.00;;;;;;4972552;28;20022;-74
2021/05/19 09:51:53;;;;;;;12.77;6.00;;;17.80;78.30;;;;;;4972398;28;20027;-72
2021/05/19 09:54:31;;;;;;;12.05;6.72;;;17.80;79.50;;;;;;4972444;28;20026;-72
2021/05/19 09:56:58;;;;;;;15.02;6.40;;;17.80;80.60;;;;;;4972464;28;20070;-72
2021/05/19 09:59:24;;;;;;;10.40;5.75;;;17.90;81.70;;;;;;4972734;28;20015;-73
2021/05/19 10:01:52;;;;;;;24.48;16.83;;;18.10;82.40;;;;;;4972893;28;20155;-72
2021/05/19 10:04:22;;;;;;;15.55;7.75;;;18.30;83.50;;;;;;4972308;28;20034;-72
2021/05/19 10:06:49;;;;;;;15.57;7.45;;;18.70;84.80;;;;;;4971287;28;20023;-70
2021/05/19 10:09:16;;;;;;;14.63;6.95;;;19.00;85.30;;;;;;4971359;28;20085;-73
2021/05/19 10:11:43;;;;;;;12.95;7.03;;;19.50;84.90;;;;;;4972302;28;20027;-72
2021/05/19 10:14:12;;;;;;;15.93;9.45;;;19.70;84.20;;;;;;4971323;28;20560;-72
2021/05/19 10:16:42;;;;;;;14.15;8.73;;;20.10;84.10;;;;;;4972414;28;20042;-73
2021/05/19 10:19:08;;;;;;;13.77;9.82;;;20.30;83.00;;;;;;4972151;28;20078;-73
2021/05/19 10:21:36;;;;;;;12.43;9.23;;;20.50;81.80;;;;;;4972600;28;20031;-73
2021/05/19 10:24:06;;;;;;;13.15;9.13;;;20.60;81.00;;;;;;4972456;28;20027;-72
2021/05/19 10:26:51;;;;;;;14.57;9.00;;;20.70;79.00;;;;;;4972323;28;20027;-72
2021/05/19 10:29:49;;;;;;;16.30;9.02;;;20.70;77.50;;;;;;4975066;28;20061;-71
2021/05/19 10:32:33;;;;;;;13.30;8.82;;;20.90;76.00;;;;;;4976086;28;20102;-72
2021/05/19 10:35:02;;;;;;;14.82;9.55;;;21.00;74.60;;;;;;4976181;28;20058;-74
2021/05/19 10:37:28;;;;;;;17.50;10.43;;;21.00;73.80;;;;;;4980860;28;20035;-76
2021/05/19 10:40:18;;;;;;;19.65;13.80;;;21.20;73.70;;;;;;4977035;28;20023;-77
2021/05/19 10:42:51;;;;;;;22.45;13.90;;;21.30;72.80;;;;;;4976327;28;20037;-76
2021/05/19 10:45:18;;;;;;;20.20;14.38;;;21.40;73.30;;;;;;4975696;28;20080;-77
2021/05/19 10:47:45;;;;;;;23.65;14.68;;;21.60;73.40;;;;;;4975815;28;20113;-78
2021/05/19 10:58:55;;;;;;;11.50;7.50;;;22.80;68.00;;;;;;4974991;28;20045;-72
2021/05/19 11:01:38;;;;;;;14.50;8.43;;;23.00;66.80;;;;;;4974721;28;20090;-73
2021/05/19 11:04:17;;;;;;;14.95;11.30;;;23.30;65.40;;;;;;4975151;28;20355;-72
2021/05/19 11:07:01;;;;;;;24.85;12.80;;;23.40;63.90;;;;;;4975205;28;20105;-71
2021/05/19 11:09:35;;;;;;;28.15;17.20;;;23.20;64.20;;;;;;4974839;28;20146;-73
2021/05/19 11:12:23;;;;;;;19.27;13.63;;;23.00;63.90;;;;;;4975257;28;20035;-73
2021/05/19 11:14:56;;;;;;;19.55;13.27;;;22.80;63.50;;;;;;4975317;28;20051;-73
2021/05/19 11:17:35;;;;;;;18.88;12.38;;;22.70;63.70;;;;;;4975090;28;20027;-73
2021/05/19 11:20:07;;;;;;;22.05;13.82;;;22.60;64.30;;;;;;4975395;28;20031;-72
2021/05/19 11:22:33;;;;;;;21.80;13.13;;;22.60;63.40;;;;;;4975310;28;20404;-72
2021/05/19 11:25:01;;;;;;;18.50;12.30;;;22.40;63.10;;;;;;4975075;28;20027;-77
2021/05/19 11:27:32;;;;;;;16.88;10.95;;;22.20;63.40;;;;;;4975176;28;20038;-76
2021/05/19 11:29:59;;;;;;;19.77;12.80;;;22.20;63.50;;;;;;4975138;28;20030;-72
2021/05/19 11:32:30;;;;;;;20.58;11.52;;;22.10;63.40;;;;;;4974884;28;20027;-72
2021/05/19 11:35:18;;;;;;;18.05;12.35;;;22.10;63.30;;;;;;4975115;28;20097;-73
2021/05/19 11:38:05;;;;;;;20.33;11.93;;;22.20;63.30;;;;;;4975017;28;20050;-73
2021/05/19 11:40:49;;;;;;;13.85;11.18;;;22.20;63.10;;;;;;4973576;28;20019;-74
2021/05/19 11:43:15;;;;;;;14.65;11.32;;;22.40;62.80;;;;;;4973733;28;20105;-72
2021/05/19 11:45:43;;;;;;;15.43;10.88;;;22.50;62.70;;;;;;4974687;28;20536;-73
2021/05/19 11:48:38;;;;;;;13.40;9.98;;;22.60;61.90;;;;;;4974713;28;20050;-71
2021/05/19 11:51:19;;;;;;;13.48;9.68;;;22.60;62.10;;;;;;4966275;28;20043;-72
2021/05/19 11:54:00;;;;;;;14.00;9.60;;;22.80;61.10;;;;;;4974650;28;20027;-73
2021/05/19 11:56:49;;;;;;;18.75;9.82;;;22.90;60.80;;;;;;4974726;28;20297;-72
2021/05/19 11:59:24;;;;;;;15.55;9.35;;;23.00;61.60;;;;;;4974480;28;20409;-71
2021/05/19 12:01:54;;;;;;;17.98;12.30;;;23.10;60.30;;;;;;4974760;28;20058;-73
2021/05/19 12:04:20;;;;;;;23.48;11.32;;;23.00;60.00;;;;;;4974632;28;20358;-72
2021/05/19 12:06:50;;;;;;;21.08;12.05;;;23.00;60.40;;;;;;4973369;28;20023;-72
2021/05/19 12:09:17;;;;;;;23.77;13.07;;;23.10;60.10;;;;;;4974299;28;20440;-73
2021/05/19 12:11:45;;;;;;;20.40;12.40;;;22.90;60.30;;;;;;4974218;28;20528;-72
2021/05/19 12:14:11;;;;;;;20.98;13.43;;;22.80;60.70;;;;;;4974321;28;20085;-72
2021/05/19 12:16:38;;;;;;;24.70;13.98;;;22.70;60.20;;;;;;4973925;28;20054;-72
2021/05/19 12:19:12;;;;;;;26.35;13.38;;;22.80;60.40;;;;;;4973979;28;20102;-72
2021/05/19 12:21:43;;;;;;;29.05;13.52;;;22.70;60.30;;;;;;4974145;28;20035;-72
2021/05/19 12:24:11;;;;;;;28.33;11.95;;;22.70;61.00;;;;;;4973959;28;20015;-72
2021/05/19 12:26:38;;;;;;;22.73;10.95;;;22.50;59.70;;;;;;4974219;28;20031;-72
2021/05/19 12:29:25;;;;;;;27.13;11.82;;;22.40;59.80;;;;;;4972915;28;20078;-72
2021/05/19 12:31:51;;;;;;;22.55;11.68;;;22.20;59.90;;;;;;4973906;28;20042;-73
2021/05/19 12:34:17;;;;;;;24.35;10.43;;;22.00;60.20;;;;;;4973618;28;20027;-72
2021/05/19 12:36:55;;;;;;;22.95;12.20;;;21.90;60.30;;;;;;4973549;28;20019;-73
2021/05/19 12:39:29;;;;;;;24.98;12.55;;;21.70;60.40;;;;;;4973402;28;20462;-73
2021/05/19 12:41:57;;;;;;;28.00;12.77;;;21.60;61.60;;;;;;4973333;28;20493;-72
2021/05/19 12:44:31;;;;;;;22.95;11.70;;;21.50;61.80;;;;;;4973384;28;20042;-72
2021/05/19 12:47:07;;;;;;;35.92;12.45;;;21.50;61.60;;;;;;4973858;28;20397;-72
2021/05/19 12:49:41;;;;;;;35.85;13.38;;;21.40;62.00;;;;;;4973699;28;20050;-72
2021/05/19 12:52:31;;;;;;;40.35;14.90;;;21.50;62.20;;;;;;4973059;28;20106;-73
2021/05/19 12:54:57;;;;;;;35.88;15.15;;;21.50;61.70;;;;;;4963422;28;20069;-72